METAR Data
IDs: Format: Raw Decoded Include TAF

Data at: 1646 UTC 22 Sep 2019

KBNA 221553Z 21010KT 10SM FEW070 SCT250 30/12 A3018 RMK AO2 SLP211 T03000122

KBNA 221120Z 2212/2312 17005KT P6SM FEW250
  FM221800 21012G16KT P6SM FEW250
  FM230000 18007KT P6SM SCT250